sensor_id;sensor_type;location;lat;lon;timestamp;pressure;altitude;pressure_sealevel;temperature;humidity
51617;BME280;37697;52.588;13.394;2023-04-01T00:03:51;99165.73;;;8.83;92.80
51617;BME280;37697;52.588;13.394;2023-04-01T00:09:19;99167.20;;;8.85;92.60
51617;BME280;37697;52.588;13.394;2023-04-01T00:14:45;99170.53;;;8.86;92.34
51617;BME280;37697;52.588;13.394;2023-04-01T00:20:12;99167.15;;;8.85;92.69
51617;BME280;37697;52.588;13.394;2023-04-01T00:25:38;99170.48;;;8.84;92.54
51617;BME280;37697;52.588;13.394;2023-04-01T00:31:07;99165.51;;;8.82;92.86
51617;BME280;37697;52.588;13.394;2023-04-01T00:36:33;99163.98;;;8.81;92.96
51617;BME280;37697;52.588;13.394;2023-04-01T00:41:59;99163.21;;;8.82;92.92
51617;BME280;37697;52.588;13.394;2023-04-01T00:47:28;99165.58;;;8.80;92.52
51617;BME280;37697;52.588;13.394;2023-04-01T00:52:55;99166.30;;;8.77;92.58
51617;BME280;37697;52.588;13.394;2023-04-01T00:58:23;99166.80;;;8.75;93.07
51617;BME280;37697;52.588;13.394;2023-04-01T01:03:49;99165.65;;;8.70;92.90
51617;BME280;37697;52.588;13.394;2023-04-01T01:09:12;99166.52;;;8.70;92.74
51617;BME280;37697;52.588;13.394;2023-04-01T01:14:55;99173.62;;;8.71;93.23
51617;BME280;37697;52.588;13.394;2023-04-01T01:20:35;99170.98;;;8.70;93.04
51617;BME280;37697;52.588;13.394;2023-04-01T01:26:26;99169.98;;;8.67;92.93
51617;BME280;37697;52.588;13.394;2023-04-01T01:32:01;99173.83;;;8.68;93.23
51617;BME280;37697;52.588;13.394;2023-04-01T01:37:32;99174.70;;;8.70;93.66
51617;BME280;37697;52.588;13.394;2023-04-01T01:43:02;99175.85;;;8.72;93.07
51617;BME280;37697;52.588;13.394;2023-04-01T01:48:29;99175.20;;;8.73;93.20
51617;BME280;37697;52.588;13.394;2023-04-01T01:53:57;99178.21;;;8.74;93.32
51617;BME280;37697;52.588;13.394;2023-04-01T01:59:23;99179.33;;;8.75;93.22
51617;BME280;37697;52.588;13.394;2023-04-01T02:04:50;99180.63;;;8.74;93.44
51617;BME280;37697;52.588;13.394;2023-04-01T02:10:19;99184.91;;;8.73;93.09
51617;BME280;37697;52.588;13.394;2023-04-01T02:15:50;99183.48;;;8.72;93.40
51617;BME280;37697;52.588;13.394;2023-04-01T02:21:20;99190.59;;;8.68;93.46
51617;BME280;37697;52.588;13.394;2023-04-01T02:26:47;99189.29;;;8.65;93.40
51617;BME280;37697;52.588;13.394;2023-04-01T02:32:14;99188.96;;;8.65;93.80
51617;BME280;37697;52.588;13.394;2023-04-01T02:37:41;99187.98;;;8.64;93.92
51617;BME280;37697;52.588;13.394;2023-04-01T02:43:07;99193.39;;;8.64;94.05
51617;BME280;37697;52.588;13.394;2023-04-01T02:48:33;99195.96;;;8.64;93.82
51617;BME280;37697;52.588;13.394;2023-04-01T02:53:59;99201.35;;;8.63;94.35
51617;BME280;37697;52.588;13.394;2023-04-01T02:59:25;99201.97;;;8.63;93.98
51617;BME280;37697;52.588;13.394;2023-04-01T03:04:51;99208.27;;;8.65;94.22
51617;BME280;37697;52.588;13.394;2023-04-01T03:10:17;99212.36;;;8.66;94.27
51617;BME280;37697;52.588;13.394;2023-04-01T03:15:43;99215.64;;;8.67;94.26
51617;BME280;37697;52.588;13.394;2023-04-01T03:21:17;99215.14;;;8.68;94.25
51617;BME280;37697;52.588;13.394;2023-04-01T03:26:44;99214.94;;;8.69;93.94
51617;BME280;37697;52.588;13.394;2023-04-01T03:32:09;99218.75;;;8.68;94.16
51617;BME280;37697;52.588;13.394;2023-04-01T03:37:35;99226.55;;;8.68;94.14
51617;BME280;37697;52.588;13.394;2023-04-01T03:43:01;99225.30;;;8.67;94.33
51617;BME280;37697;52.588;13.394;2023-04-01T03:48:27;99228.75;;;8.68;94.22
51617;BME280;37697;52.588;13.394;2023-04-01T03:53:52;99237.25;;;8.68;94.29
51617;BME280;37697;52.588;13.394;2023-04-01T03:59:18;99237.16;;;8.67;93.90
51617;BME280;37697;52.588;13.394;2023-04-01T04:04:44;99242.98;;;8.68;94.02
51617;BME280;37697;52.588;13.394;2023-04-01T04:10:10;99245.02;;;8.68;94.17
51617;BME280;37697;52.588;13.394;2023-04-01T04:15:36;99250.69;;;8.68;94.37
51617;BME280;37697;52.588;13.394;2023-04-01T04:21:02;99252.13;;;8.68;94.30
51617;BME280;37697;52.588;13.394;2023-04-01T04:26:29;99258.05;;;8.67;94.34
51617;BME280;37697;52.588;13.394;2023-04-01T04:31:55;99258.94;;;8.68;94.08
51617;BME280;37697;52.588;13.394;2023-04-01T04:37:21;99261.11;;;8.67;94.45
51617;BME280;37697;52.588;13.394;2023-04-01T04:42:46;99266.60;;;8.67;94.43
51617;BME280;37697;52.588;13.394;2023-04-01T04:48:26;99269.45;;;8.67;94.78
51617;BME280;37697;52.588;13.394;2023-04-01T04:53:51;99272.64;;;8.68;94.59
51617;BME280;37697;52.588;13.394;2023-04-01T04:59:17;99279.23;;;8.68;94.66
51617;BME280;37697;52.588;13.394;2023-04-01T05:04:43;99279.35;;;8.68;94.45
51617;BME280;37697;52.588;13.394;2023-04-01T05:10:10;99280.26;;;8.69;94.59
51617;BME280;37697;52.588;13.394;2023-04-01T05:15:36;99285.17;;;8.67;94.74
51617;BME280;37697;52.588;13.394;2023-04-01T05:21:02;99286.94;;;8.66;94.89
51617;BME280;37697;52.588;13.394;2023-04-01T05:26:28;99290.55;;;8.66;95.14
51617;BME280;37697;52.588;13.394;2023-04-01T05:31:53;99289.67;;;8.68;94.93
51617;BME280;37697;52.588;13.394;2023-04-01T05:37:19;99297.50;;;8.69;94.98
51617;BME280;37697;52.588;13.394;2023-04-01T05:42:45;99300.91;;;8.70;95.30
51617;BME280;37697;52.588;13.394;2023-04-01T05:48:11;99304.56;;;8.72;95.07
51617;BME280;37697;52.588;13.394;2023-04-01T05:53:37;99307.68;;;8.76;94.90
51617;BME280;37697;52.588;13.394;2023-04-01T05:59:02;99310.86;;;8.78;95.22
51617;BME280;37697;52.588;13.394;2023-04-01T06:04:31;99315.98;;;8.81;94.88
51617;BME280;37697;52.588;13.394;2023-04-01T06:09:59;99320.73;;;8.84;95.36
51617;BME280;37697;52.588;13.394;2023-04-01T06:15:34;99325.30;;;8.88;95.43
51617;BME280;37697;52.588;13.394;2023-04-01T06:21:07;99330.92;;;8.89;95.23
51617;BME280;37697;52.588;13.394;2023-04-01T06:26:41;99339.73;;;8.91;95.27
51617;BME280;37697;52.588;13.394;2023-04-01T06:32:29;99346.94;;;8.89;95.15
51617;BME280;37697;52.588;13.394;2023-04-01T06:38:20;99349.20;;;8.87;95.42
51617;BME280;37697;52.588;13.394;2023-04-01T06:43:55;99356.22;;;8.90;95.43
51617;BME280;37697;52.588;13.394;2023-04-01T06:49:34;99358.63;;;8.93;95.55
51617;BME280;37697;52.588;13.394;2023-04-01T06:55:06;99362.33;;;8.96;95.31
51617;BME280;37697;52.588;13.394;2023-04-01T07:00:42;99364.20;;;9.00;95.58
51617;BME280;37697;52.588;13.394;2023-04-01T07:06:14;99363.77;;;9.05;95.47
51617;BME280;37697;52.588;13.394;2023-04-01T07:11:42;99368.86;;;9.08;95.61
51617;BME280;37697;52.588;13.394;2023-04-01T07:17:11;99375.45;;;9.08;95.20
51617;BME280;37697;52.588;13.394;2023-04-01T07:22:43;99374.23;;;9.07;95.37
51617;BME280;37697;52.588;13.394;2023-04-01T07:28:15;99377.84;;;9.09;95.19
51617;BME280;37697;52.588;13.394;2023-04-01T07:33:51;99383.92;;;9.10;95.22
51617;BME280;37697;52.588;13.394;2023-04-01T07:39:27;99386.60;;;9.12;95.50
51617;BME280;37697;52.588;13.394;2023-04-01T07:45:04;99395.55;;;9.10;95.10
51617;BME280;37697;52.588;13.394;2023-04-01T07:50:40;99402.15;;;9.05;95.31
51617;BME280;37697;52.588;13.394;2023-04-01T07:56:18;99406.63;;;8.89;94.49
51617;BME280;37697;52.588;13.394;2023-04-01T08:01:58;99411.58;;;8.77;94.62
51617;BME280;37697;52.588;13.394;2023-04-01T08:07:33;99420.16;;;8.75;94.86
51617;BME280;37697;52.588;13.394;2023-04-01T08:13:09;99424.14;;;8.74;94.61
51617;BME280;37697;52.588;13.394;2023-04-01T08:18:45;99427.13;;;8.61;94.25
51617;BME280;37697;52.588;13.394;2023-04-01T08:24:22;99435.10;;;8.51;94.76
51617;BME280;37697;52.588;13.394;2023-04-01T08:29:57;99439.52;;;8.48;94.91
51617;BME280;37697;52.588;13.394;2023-04-01T08:35:28;99446.75;;;8.45;94.46
51617;BME280;37697;52.588;13.394;2023-04-01T08:47:03;99462.13;;;8.43;94.94
51617;BME280;37697;52.588;13.394;2023-04-01T08:52:38;99467.02;;;8.51;94.91
51617;BME280;37697;52.588;13.394;2023-04-01T08:58:22;99470.65;;;8.55;94.81
51617;BME280;37697;52.588;13.394;2023-04-01T09:04:05;99476.00;;;8.54;94.86
51617;BME280;37697;52.588;13.394;2023-04-01T09:09:55;99477.08;;;8.67;96.00
51617;BME280;37697;52.588;13.394;2023-04-01T09:15:45;99478.57;;;8.81;95.30
51617;BME280;37697;52.588;13.394;2023-04-01T09:21:41;99488.31;;;8.78;94.32
51617;BME280;37697;52.588;13.394;2023-04-01T09:27:17;99498.46;;;8.68;93.71
51617;BME280;37697;52.588;13.394;2023-04-01T09:33:05;99508.14;;;8.76;94.03
51617;BME280;37697;52.588;13.394;2023-04-01T09:38:42;99508.04;;;8.87;94.63
51617;BME280;37697;52.588;13.394;2023-04-01T09:44:18;99514.17;;;8.81;92.52
51617;BME280;37697;52.588;13.394;2023-04-01T09:49:59;99521.95;;;8.67;93.04
51617;BME280;37697;52.588;13.394;2023-04-01T09:55:36;99528.23;;;8.63;93.72
51617;BME280;37697;52.588;13.394;2023-04-01T10:01:38;99536.69;;;8.64;93.06
51617;BME280;37697;52.588;13.394;2023-04-01T10:07:45;99539.48;;;8.57;92.59
51617;BME280;37697;52.588;13.394;2023-04-01T10:13:43;99545.11;;;8.48;92.72
51617;BME280;37697;52.588;13.394;2023-04-01T10:25:19;99556.94;;;8.39;92.46
51617;BME280;37697;52.588;13.394;2023-04-01T10:31:08;99561.75;;;8.28;92.44
51617;BME280;37697;52.588;13.394;2023-04-01T10:36:52;99568.30;;;8.24;92.63
51617;BME280;37697;52.588;13.394;2023-04-01T10:54:47;99580.09;;;8.14;92.72
51617;BME280;37697;52.588;13.394;2023-04-01T11:00:24;99581.27;;;8.08;92.92
51617;BME280;37697;52.588;13.394;2023-04-01T11:12:35;99588.52;;;7.93;92.37
51617;BME280;37697;52.588;13.394;2023-04-01T11:18:31;99591.68;;;7.88;92.95
51617;BME280;37697;52.588;13.394;2023-04-01T11:24:21;99596.65;;;7.82;92.92
51617;BME280;37697;52.588;13.394;2023-04-01T11:30:04;99600.13;;;7.83;93.36
51617;BME280;37697;52.588;13.394;2023-04-01T11:41:38;99613.17;;;7.79;93.55
51617;BME280;37697;52.588;13.394;2023-04-01T11:47:22;99622.27;;;7.76;92.90
51617;BME280;37697;52.588;13.394;2023-04-01T11:53:05;99625.32;;;7.77;92.95
51617;BME280;37697;52.588;13.394;2023-04-01T11:58:58;99634.02;;;7.65;92.62
51617;BME280;37697;52.588;13.394;2023-04-01T12:04:45;99644.15;;;7.57;93.04
51617;BME280;37697;52.588;13.394;2023-04-01T12:10:21;99651.08;;;7.50;92.76
51617;BME280;37697;52.588;13.394;2023-04-01T12:22:34;99663.31;;;7.29;92.94
51617;BME280;37697;52.588;13.394;2023-04-01T12:28:13;99672.87;;;7.30;93.29
51617;BME280;37697;52.588;13.394;2023-04-01T12:34:03;99677.18;;;7.26;93.66
51617;BME280;37697;52.588;13.394;2023-04-01T12:39:59;99685.05;;;7.22;93.34
51617;BME280;37697;52.588;13.394;2023-04-01T12:45:32;99688.67;;;7.18;93.32
51617;BME280;37697;52.588;13.394;2023-04-01T12:51:10;99698.81;;;7.05;92.99
51617;BME280;37697;52.588;13.394;2023-04-01T12:56:43;99705.31;;;6.97;93.40
51617;BME280;37697;52.588;13.394;2023-04-01T13:02:26;99709.73;;;6.93;93.18
51617;BME280;37697;52.588;13.394;2023-04-01T13:08:00;99717.58;;;6.92;93.69
51617;BME280;37697;52.588;13.394;2023-04-01T13:19:40;99732.12;;;6.87;93.26
51617;BME280;37697;52.588;13.394;2023-04-01T13:25:17;99737.42;;;6.79;93.28
51617;BME280;37697;52.588;13.394;2023-04-01T13:30:52;99744.65;;;6.75;93.25
51617;BME280;37697;52.588;13.394;2023-04-01T13:36:26;99745.91;;;6.72;93.55
51617;BME280;37697;52.588;13.394;2023-04-01T13:42:09;99758.23;;;6.75;93.86
51617;BME280;37697;52.588;13.394;2023-04-01T13:48:14;99760.63;;;6.78;93.77
51617;BME280;37697;52.588;13.394;2023-04-01T13:54:12;99771.39;;;6.70;93.52
51617;BME280;37697;52.588;13.394;2023-04-01T14:00:00;99777.11;;;6.62;93.28
51617;BME280;37697;52.588;13.394;2023-04-01T14:05:44;99784.02;;;6.55;92.94
51617;BME280;37697;52.588;13.394;2023-04-01T14:11:19;99784.69;;;6.45;93.18
51617;BME280;37697;52.588;13.394;2023-04-01T14:17:15;99795.02;;;6.48;93.53
51617;BME280;37697;52.588;13.394;2023-04-01T14:22:55;99801.02;;;6.50;92.81
51617;BME280;37697;52.588;13.394;2023-04-01T14:28:30;99805.64;;;6.44;92.98
51617;BME280;37697;52.588;13.394;2023-04-01T14:34:00;99809.49;;;6.50;92.94
51617;BME280;37697;52.588;13.394;2023-04-01T14:39:59;99818.13;;;6.50;93.17
51617;BME280;37697;52.588;13.394;2023-04-01T14:45:57;99827.31;;;6.37;92.95
51617;BME280;37697;52.588;13.394;2023-04-01T14:51:33;99838.65;;;6.25;92.84
51617;BME280;37697;52.588;13.394;2023-04-01T14:57:11;99846.61;;;6.16;92.80
51617;BME280;37697;52.588;13.394;2023-04-01T15:02:49;99854.29;;;6.14;92.95
51617;BME280;37697;52.588;13.394;2023-04-01T15:08:22;99859.31;;;6.14;92.80
51617;BME280;37697;52.588;13.394;2023-04-01T15:14:18;99866.04;;;6.11;92.59
51617;BME280;37697;52.588;13.394;2023-04-01T15:20:01;99875.27;;;6.07;92.45
51617;BME280;37697;52.588;13.394;2023-04-01T15:25:48;99883.83;;;6.04;92.45
51617;BME280;37697;52.588;13.394;2023-04-01T15:31:18;99890.02;;;6.03;92.66
51617;BME280;37697;52.588;13.394;2023-04-01T15:36:53;99893.08;;;6.00;92.47
51617;BME280;37697;52.588;13.394;2023-04-01T15:42:30;99896.37;;;5.98;92.73
51617;BME280;37697;52.588;13.394;2023-04-01T15:48:04;99905.79;;;5.98;92.68
51617;BME280;37697;52.588;13.394;2023-04-01T15:53:53;99913.88;;;5.94;92.29
51617;BME280;37697;52.588;13.394;2023-04-01T15:59:36;99922.84;;;5.85;92.33
51617;BME280;37697;52.588;13.394;2023-04-01T16:05:10;99934.46;;;5.78;92.91
51617;BME280;37697;52.588;13.394;2023-04-01T16:10:57;99942.15;;;5.70;92.70
51617;BME280;37697;52.588;13.394;2023-04-01T16:16:36;99946.65;;;5.63;92.44
51617;BME280;37697;52.588;13.394;2023-04-01T16:22:09;99956.93;;;5.56;92.42
51617;BME280;37697;52.588;13.394;2023-04-01T16:27:44;99968.48;;;5.48;92.50
51617;BME280;37697;52.588;13.394;2023-04-01T16:33:18;99982.98;;;5.42;92.55
51617;BME280;37697;52.588;13.394;2023-04-01T16:38:52;99992.67;;;5.38;92.25
51617;BME280;37697;52.588;13.394;2023-04-01T16:44:25;100001.16;;;5.28;92.31
51617;BME280;37697;52.588;13.394;2023-04-01T16:49:58;100009.54;;;5.20;92.15
51617;BME280;37697;52.588;13.394;2023-04-01T16:55:43;100019.48;;;5.10;92.22
51617;BME280;37697;52.588;13.394;2023-04-01T17:01:09;100033.05;;;5.04;92.55
51617;BME280;37697;52.588;13.394;2023-04-01T17:06:41;100042.31;;;5.00;92.22
51617;BME280;37697;52.588;13.394;2023-04-01T17:12:18;100051.61;;;4.87;91.64
51617;BME280;37697;52.588;13.394;2023-04-01T17:17:51;100063.14;;;4.74;91.55
51617;BME280;37697;52.588;13.394;2023-04-01T17:23:24;100074.02;;;4.68;92.01
51617;BME280;37697;52.588;13.394;2023-04-01T17:28:57;100087.98;;;4.60;91.59
51617;BME280;37697;52.588;13.394;2023-04-01T17:34:41;100094.30;;;4.60;92.39
51617;BME280;37697;52.588;13.394;2023-04-01T17:40:30;100107.02;;;4.56;91.88
51617;BME280;37697;52.588;13.394;2023-04-01T17:46:04;100112.29;;;4.48;91.65
51617;BME280;37697;52.588;13.394;2023-04-01T17:51:40;100121.44;;;4.35;91.03
51617;BME280;37697;52.588;13.394;2023-04-01T17:57:30;100138.85;;;4.23;91.26
51617;BME280;37697;52.588;13.394;2023-04-01T18:03:06;100141.59;;;4.16;91.71
51617;BME280;37697;52.588;13.394;2023-04-01T18:08:55;100157.07;;;4.14;91.45
51617;BME280;37697;52.588;13.394;2023-04-01T18:14:42;100167.94;;;4.07;91.83
51617;BME280;37697;52.588;13.394;2023-04-01T18:20:23;100179.92;;;4.01;91.73
51617;BME280;37697;52.588;13.394;2023-04-01T18:25:55;100188.86;;;3.92;91.76
51617;BME280;37697;52.588;13.394;2023-04-01T18:31:34;100198.88;;;3.89;92.04
51617;BME280;37697;52.588;13.394;2023-04-01T18:37:16;100212.39;;;3.82;91.79
51617;BME280;37697;52.588;13.394;2023-04-01T18:42:53;100225.79;;;3.75;92.43
51617;BME280;37697;52.588;13.394;2023-04-01T18:48:37;100231.98;;;3.68;92.64
51617;BME280;37697;52.588;13.394;2023-04-01T18:54:15;100243.48;;;3.63;92.58
51617;BME280;37697;52.588;13.394;2023-04-01T18:59:46;100261.44;;;3.59;92.89
51617;BME280;37697;52.588;13.394;2023-04-01T19:05:26;100270.14;;;3.56;92.48
51617;BME280;37697;52.588;13.394;2023-04-01T19:11:29;100279.11;;;3.54;92.80
51617;BME280;37697;52.588;13.394;2023-04-01T19:17:04;100283.64;;;3.56;92.62
51617;BME280;37697;52.588;13.394;2023-04-01T19:22:44;100287.45;;;3.53;92.33
51617;BME280;37697;52.588;13.394;2023-04-01T19:28:25;100287.91;;;3.43;92.38
51617;BME280;37697;52.588;13.394;2023-04-01T19:34:07;100295.83;;;3.36;92.67
51617;BME280;37697;52.588;13.394;2023-04-01T19:39:47;100306.59;;;3.31;92.74
51617;BME280;37697;52.588;13.394;2023-04-01T19:45:26;100316.98;;;3.23;92.73
51617;BME280;37697;52.588;13.394;2023-04-01T19:50:59;100327.18;;;3.15;93.19
51617;BME280;37697;52.588;13.394;2023-04-01T19:56:38;100338.80;;;3.11;93.23
51617;BME280;37697;52.588;13.394;2023-04-01T20:02:32;100348.64;;;3.06;93.22
51617;BME280;37697;52.588;13.394;2023-04-01T20:08:04;100356.00;;;3.00;93.03
51617;BME280;37697;52.588;13.394;2023-04-01T20:13:33;100369.95;;;2.94;93.35
51617;BME280;37697;52.588;13.394;2023-04-01T20:19:01;100384.96;;;2.88;93.55
51617;BME280;37697;52.588;13.394;2023-04-01T20:24:33;100396.00;;;2.82;93.36
51617;BME280;37697;52.588;13.394;2023-04-01T20:30:33;100409.04;;;2.78;93.32
51617;BME280;37697;52.588;13.394;2023-04-01T20:36:13;100417.11;;;2.76;93.46
51617;BME280;37697;52.588;13.394;2023-04-01T20:41:49;100428.31;;;2.75;93.54
51617;BME280;37697;52.588;13.394;2023-04-01T20:47:37;100436.52;;;2.74;93.06
51617;BME280;37697;52.588;13.394;2023-04-01T20:53:28;100442.31;;;2.70;93.11
51617;BME280;37697;52.588;13.394;2023-04-01T21:05:22;100461.41;;;2.67;92.60
51617;BME280;37697;52.588;13.394;2023-04-01T21:11:00;100468.35;;;2.58;92.36
51617;BME280;37697;52.588;13.394;2023-04-01T21:16:37;100479.33;;;2.57;92.67
51617;BME280;37697;52.588;13.394;2023-04-01T21:22:30;100486.92;;;2.51;92.40
51617;BME280;37697;52.588;13.394;2023-04-01T21:28:21;100497.96;;;2.46;92.48
51617;BME280;37697;52.588;13.394;2023-04-01T21:40:09;100520.51;;;2.39;92.32
51617;BME280;37697;52.588;13.394;2023-04-01T21:45:59;100529.44;;;2.36;92.43
51617;BME280;37697;52.588;13.394;2023-04-01T21:51:59;100534.83;;;2.33;92.27
51617;BME280;37697;52.588;13.394;2023-04-01T21:57:52;100544.68;;;2.29;92.13
51617;BME280;37697;52.588;13.394;2023-04-01T22:03:41;100552.92;;;2.27;91.98
51617;BME280;37697;52.588;13.394;2023-04-01T22:09:23;100561.16;;;2.26;91.93
51617;BME280;37697;52.588;13.394;2023-04-01T22:14:53;100570.40;;;2.25;91.80
51617;BME280;37697;52.588;13.394;2023-04-01T22:20:30;100576.50;;;2.26;91.29
51617;BME280;37697;52.588;13.394;2023-04-01T22:26:04;100588.56;;;2.26;91.30
51617;BME280;37697;52.588;13.394;2023-04-01T22:31:41;100594.36;;;2.25;90.96
51617;BME280;37697;52.588;13.394;2023-04-01T22:37:16;100596.59;;;2.25;90.80
51617;BME280;37697;52.588;13.394;2023-04-01T22:43:01;100609.05;;;2.25;90.67
51617;BME280;37697;52.588;13.394;2023-04-01T22:48:39;100617.87;;;2.27;90.55
51617;BME280;37697;52.588;13.394;2023-04-01T22:54:14;100625.45;;;2.29;90.41
51617;BME280;37697;52.588;13.394;2023-04-01T22:59:44;100628.52;;;2.27;90.03
51617;BME280;37697;52.588;13.394;2023-04-01T23:05:15;100635.27;;;2.23;90.21
51617;BME280;37697;52.588;13.394;2023-04-01T23:10:44;100642.13;;;2.20;90.09
51617;BME280;37697;52.588;13.394;2023-04-01T23:16:13;100648.84;;;2.15;89.79
51617;BME280;37697;52.588;13.394;2023-04-01T23:21:42;100654.07;;;2.13;89.64
51617;BME280;37697;52.588;13.394;2023-04-01T23:27:15;100660.61;;;2.14;89.75
51617;BME280;37697;52.588;13.394;2023-04-01T23:32:45;100670.23;;;2.13;89.33
51617;BME280;37697;52.588;13.394;2023-04-01T23:38:11;100674.88;;;2.08;89.01
51617;BME280;37697;52.588;13.394;2023-04-01T23:43:39;100682.65;;;2.05;89.16
51617;BME280;37697;52.588;13.394;2023-04-01T23:49:11;100688.58;;;2.02;89.12
51617;BME280;37697;52.588;13.394;2023-04-01T23:54:46;100700.09;;;1.98;88.53
